Time;durP1;ratioP1;P1;durP2;ratioP2;P2;SDS_P1;SDS_P2;PMS_P1;PMS_P2;Temp;Humidity;BMP_temperature;BMP_pressure;BME280_temperature;BME280_humidity;BME280_pressure;Samples;Min_cycle;Max_cycle;Signal;HPM_P1;HPM_P2
2021/07/20 00:00:04;;;;;;;16.20;8.52;;;;;;;;;;4344824;33;20497;-83
2021/07/20 00:02:50;;;;;;;14.77;8.10;;;;;;;;;;4344973;33;20235;-83
2021/07/20 00:05:20;;;;;;;15.13;8.02;;;;;;;;;;4344917;33;20179;-84
2021/07/20 00:07:46;;;;;;;16.00;7.87;;;;;;;;;;4345176;33;20160;-83
2021/07/20 00:10:16;;;;;;;12.77;7.95;;;;;;;;;;4344303;33;20195;-83
2021/07/20 00:12:52;;;;;;;14.70;8.80;;;;;;;;;;4345017;33;20190;-83
2021/07/20 00:15:17;;;;;;;14.68;8.32;;;;;;;;;;4345555;33;20166;-83
2021/07/20 00:17:43;;;;;;;15.40;8.23;;;;;;;;;;4344553;32;20592;-84
2021/07/20 00:20:10;;;;;;;14.77;8.10;;;;;;;;;;4344660;33;20163;-83
2021/07/20 00:22:36;;;;;;;15.50;8.15;;;;;;;;;;4345141;33;20168;-83
2021/07/20 00:25:01;;;;;;;13.77;7.50;;;;;;;;;;4344545;33;20167;-83
2021/07/20 00:27:26;;;;;;;15.15;8.20;;;;;;;;;;4344559;33;20155;-83
2021/07/20 00:33:31;;;;;;;16.20;7.82;;;;;;;;;;4314682;33;20190;-83
2021/07/20 00:35:44;;;;;;;14.05;8.07;;;;;;;;;;4305142;32;20482;-83
2021/07/20 00:38:15;;;;;;;16.35;8.95;;;;;;;;;;4314373;33;20231;-83
2021/07/20 00:40:41;;;;;;;14.90;7.93;;;;;;;;;;4301631;33;20183;-83
2021/07/20 00:43:13;;;;;;;16.58;7.75;;;;;;;;;;4306794;33;20491;-83
2021/07/20 00:46:17;;;;;;;16.08;8.25;;;;;;;;;;4344534;33;20147;-83
2021/07/20 00:48:33;;;;;;;16.40;7.62;;;;;;;;;;4343232;33;20164;-83
2021/07/20 00:50:58;;;;;;;13.57;7.15;;;;;;;;;;4334734;33;20259;-84
2021/07/20 00:53:29;;;;;;;13.88;8.02;;;;;;;;;;4346412;33;20155;-83
2021/07/20 00:56:04;;;;;;;15.38;8.13;;;;;;;;;;4346380;33;20158;-83
2021/07/20 00:58:30;;;;;;;17.40;8.60;;;;;;;;;;4347124;33;20166;-84
2021/07/20 01:04:04;;;;;;;15.43;8.05;;;;;;;;;;4356274;33;20227;-83
2021/07/20 01:09:25;;;;;;;18.10;8.55;;;;;;;;;;4316131;32;20295;-83
2021/07/20 01:11:59;;;;;;;15.93;8.85;;;;;;;;;;4346521;33;20233;-83
2021/07/20 01:14:28;;;;;;;19.42;9.38;;;;;;;;;;4346542;32;20575;-83
2021/07/20 01:16:59;;;;;;;15.68;8.45;;;;;;;;;;4346439;32;20174;-84
2021/07/20 01:19:32;;;;;;;17.37;8.10;;;;;;;;;;4346576;33;20163;-83
2021/07/20 01:21:59;;;;;;;21.65;9.35;;;;;;;;;;4346329;32;20208;-84
2021/07/20 01:24:26;;;;;;;17.55;9.32;;;;;;;;;;4359605;33;20131;-84
2021/07/20 01:26:53;;;;;;;19.12;9.45;;;;;;;;;;4343152;32;20163;-83
2021/07/20 01:29:19;;;;;;;14.95;8.95;;;;;;;;;;4358044;33;20151;-83
2021/07/20 01:31:44;;;;;;;19.33;9.48;;;;;;;;;;4345983;33;20182;-83
2021/07/20 01:34:39;;;;;;;15.73;8.75;;;;;;;;;;4334085;33;20488;-83
2021/07/20 01:37:06;;;;;;;19.65;9.45;;;;;;;;;;4342783;33;20166;-83
2021/07/20 01:39:31;;;;;;;18.85;9.40;;;;;;;;;;4332987;32;20148;-83
2021/07/20 01:41:57;;;;;;;20.98;9.82;;;;;;;;;;4346222;32;20220;-83
2021/07/20 01:44:24;;;;;;;18.65;9.88;;;;;;;;;;4357379;33;20143;-83
2021/07/20 01:50:14;;;;;;;21.33;10.43;;;;;;;;;;4363697;32;20247;-83
2021/07/20 01:52:48;;;;;;;19.37;9.10;;;;;;;;;;4358830;32;20599;-83
2021/07/20 01:55:31;;;;;;;22.80;9.75;;;;;;;;;;4408894;32;20174;-84
2021/07/20 01:57:56;;;;;;;18.27;9.57;;;;;;;;;;4409547;32;20203;-83
2021/07/20 02:00:25;;;;;;;16.33;9.02;;;;;;;;;;4409339;32;20194;-83
2021/07/20 02:08:31;;;;;;;19.48;10.32;;;;;;;;;;4358653;33;20218;-83
2021/07/20 02:10:58;;;;;;;21.83;9.95;;;;;;;;;;4359033;32;20155;-83
2021/07/20 02:13:25;;;;;;;22.95;10.13;;;;;;;;;;4395538;32;20305;-82
2021/07/20 02:15:51;;;;;;;20.80;9.85;;;;;;;;;;4345668;32;20188;-82
2021/07/20 02:18:19;;;;;;;19.40;9.80;;;;;;;;;;4370257;32;20176;-81
2021/07/20 02:20:47;;;;;;;22.70;10.20;;;;;;;;;;4385716;32;20162;-83
2021/07/20 02:23:13;;;;;;;19.73;10.75;;;;;;;;;;4382233;32;20200;-84
2021/07/20 02:25:40;;;;;;;22.13;9.90;;;;;;;;;;4403150;32;20177;-83
2021/07/20 02:28:06;;;;;;;20.67;10.38;;;;;;;;;;4401394;32;20203;-83
2021/07/20 02:30:32;;;;;;;19.85;9.95;;;;;;;;;;4371698;32;20202;-83
2021/07/20 02:32:59;;;;;;;17.37;9.38;;;;;;;;;;4398858;32;20158;-83
2021/07/20 02:35:25;;;;;;;17.60;9.20;;;;;;;;;;4408831;32;20218;-84
2021/07/20 02:37:51;;;;;;;20.33;10.63;;;;;;;;;;4407580;32;20236;-83
2021/07/20 02:40:18;;;;;;;23.10;11.00;;;;;;;;;;4406602;32;20154;-83
2021/07/20 02:42:44;;;;;;;20.05;11.02;;;;;;;;;;4406915;32;20150;-84
2021/07/20 02:45:10;;;;;;;23.42;10.18;;;;;;;;;;4407302;32;20154;-83
2021/07/20 02:47:36;;;;;;;22.42;10.70;;;;;;;;;;4406856;32;20215;-84
2021/07/20 02:50:03;;;;;;;24.58;10.77;;;;;;;;;;4406618;32;20166;-84
2021/07/20 02:52:29;;;;;;;23.45;11.70;;;;;;;;;;4375817;32;20167;-84
2021/07/20 02:54:58;;;;;;;24.23;11.25;;;;;;;;;;4345160;32;20156;-84
2021/07/20 02:57:26;;;;;;;22.25;10.95;;;;;;;;;;4346593;33;20191;-83
2021/07/20 02:59:53;;;;;;;21.50;10.65;;;;;;;;;;4344425;33;20147;-83
2021/07/20 03:02:19;;;;;;;22.73;9.88;;;;;;;;;;4344422;32;20189;-83
2021/07/20 03:04:45;;;;;;;21.05;9.88;;;;;;;;;;4346963;32;20177;-83
2021/07/20 03:07:11;;;;;;;23.45;11.88;;;;;;;;;;4346499;32;20158;-83
2021/07/20 03:09:38;;;;;;;23.27;10.57;;;;;;;;;;4346191;32;20161;-82
2021/07/20 03:12:07;;;;;;;21.37;10.32;;;;;;;;;;4346974;32;20167;-83
2021/07/20 03:14:33;;;;;;;25.10;11.80;;;;;;;;;;4347293;32;20198;-83
2021/07/20 03:16:59;;;;;;;22.92;11.35;;;;;;;;;;4347407;32;20606;-84
2021/07/20 03:19:25;;;;;;;23.50;11.25;;;;;;;;;;4347305;32;20151;-84
2021/07/20 03:21:56;;;;;;;21.95;10.95;;;;;;;;;;4347330;32;20171;-84
2021/07/20 03:24:25;;;;;;;24.37;11.75;;;;;;;;;;4348248;32;20151;-85
2021/07/20 03:26:52;;;;;;;26.27;12.13;;;;;;;;;;4346879;32;20171;-83
2021/07/20 03:29:18;;;;;;;20.98;10.82;;;;;;;;;;4344928;32;20156;-85
2021/07/20 03:31:46;;;;;;;25.42;11.82;;;;;;;;;;4358872;33;20128;-85
2021/07/20 03:34:12;;;;;;;25.27;11.82;;;;;;;;;;4345380;32;20158;-84
2021/07/20 03:36:38;;;;;;;26.92;12.10;;;;;;;;;;4344865;32;20163;-84
2021/07/20 03:39:13;;;;;;;21.73;10.88;;;;;;;;;;4344800;32;20237;-84
2021/07/20 03:41:40;;;;;;;26.73;12.57;;;;;;;;;;4344993;32;20204;-84
2021/07/20 03:44:05;;;;;;;24.30;11.25;;;;;;;;;;4344817;32;20148;-84
2021/07/20 03:46:33;;;;;;;30.23;13.00;;;;;;;;;;4344430;32;20227;-84
2021/07/20 03:48:59;;;;;;;24.80;12.15;;;;;;;;;;4346195;32;20193;-84
2021/07/20 03:51:26;;;;;;;25.95;11.50;;;;;;;;;;4354312;32;20223;-84
2021/07/20 03:53:53;;;;;;;24.05;11.57;;;;;;;;;;4406836;32;20184;-84
2021/07/20 03:56:19;;;;;;;23.62;11.75;;;;;;;;;;4402651;32;20232;-83
2021/07/20 03:58:47;;;;;;;23.85;11.12;;;;;;;;;;4415150;32;20209;-83
2021/07/20 04:01:13;;;;;;;27.77;11.98;;;;;;;;;;4412405;32;20220;-84
2021/07/20 04:03:38;;;;;;;23.73;12.00;;;;;;;;;;4422338;32;20143;-84
2021/07/20 04:06:09;;;;;;;22.45;11.82;;;;;;;;;;4405671;32;20192;-83
2021/07/20 04:08:36;;;;;;;21.40;11.18;;;;;;;;;;4420644;32;20150;-84
2021/07/20 04:11:02;;;;;;;24.12;11.45;;;;;;;;;;4420602;32;20146;-84
2021/07/20 04:13:29;;;;;;;23.17;12.13;;;;;;;;;;4422314;32;20230;-83
2021/07/20 04:15:57;;;;;;;23.90;11.77;;;;;;;;;;4421972;32;20235;-84
2021/07/20 04:18:27;;;;;;;24.50;11.75;;;;;;;;;;4422728;32;20201;-84
2021/07/20 04:20:56;;;;;;;26.23;11.70;;;;;;;;;;4422008;32;20185;-85
2021/07/20 04:23:24;;;;;;;25.77;12.32;;;;;;;;;;4421706;32;20171;-83
2021/07/20 04:25:50;;;;;;;23.67;11.73;;;;;;;;;;4400105;32;20220;-86
2021/07/20 04:28:16;;;;;;;21.23;10.68;;;;;;;;;;4394003;32;20154;-85
2021/07/20 04:30:44;;;;;;;23.17;10.90;;;;;;;;;;4397395;32;20224;-85
2021/07/20 04:33:13;;;;;;;21.55;10.80;;;;;;;;;;4406556;32;20196;-85
2021/07/20 04:35:39;;;;;;;25.75;11.95;;;;;;;;;;4407916;32;20232;-85
2021/07/20 04:38:07;;;;;;;21.90;11.00;;;;;;;;;;4406973;32;20150;-84
2021/07/20 04:40:34;;;;;;;23.95;10.73;;;;;;;;;;4407655;32;20186;-85
2021/07/20 04:43:03;;;;;;;22.25;11.65;;;;;;;;;;4424430;32;20181;-84
2021/07/20 04:45:29;;;;;;;25.25;11.88;;;;;;;;;;4407954;32;20158;-83
2021/07/20 04:47:55;;;;;;;19.92;11.00;;;;;;;;;;4421688;32;20478;-85
2021/07/20 04:50:24;;;;;;;23.30;11.12;;;;;;;;;;4421684;32;20130;-84
2021/07/20 04:52:50;;;;;;;21.08;9.93;;;;;;;;;;4360020;32;20464;-84
2021/07/20 04:55:16;;;;;;;21.20;10.57;;;;;;;;;;4343620;33;20159;-84
2021/07/20 04:57:44;;;;;;;20.50;10.38;;;;;;;;;;4331612;32;20160;-83
2021/07/20 05:00:13;;;;;;;21.95;11.02;;;;;;;;;;4344002;32;20152;-83
2021/07/20 05:02:40;;;;;;;20.98;10.07;;;;;;;;;;4346433;32;20156;-84
2021/07/20 05:05:07;;;;;;;21.67;11.05;;;;;;;;;;4346841;32;20575;-85
2021/07/20 05:07:38;;;;;;;23.10;10.05;;;;;;;;;;4347184;33;20182;-85
2021/07/20 05:10:03;;;;;;;19.33;10.75;;;;;;;;;;4346465;33;20167;-84
2021/07/20 05:12:36;;;;;;;19.50;10.48;;;;;;;;;;4358018;32;20153;-84
2021/07/20 05:15:02;;;;;;;18.15;8.65;;;;;;;;;;4329210;33;20155;-84
2021/07/20 05:17:33;;;;;;;22.20;9.77;;;;;;;;;;4329158;32;20511;-85
2021/07/20 05:19:59;;;;;;;18.48;10.00;;;;;;;;;;4329669;32;20159;-83
2021/07/20 05:22:25;;;;;;;22.20;10.57;;;;;;;;;;4329901;32;20175;-83
2021/07/20 05:24:59;;;;;;;18.17;9.50;;;;;;;;;;4333126;32;20158;-83
2021/07/20 05:27:25;;;;;;;16.85;9.25;;;;;;;;;;4336154;33;20142;-82
2021/07/20 05:29:54;;;;;;;15.43;8.27;;;;;;;;;;4337729;33;20151;-83
2021/07/20 05:32:20;;;;;;;16.00;8.13;;;;;;;;;;4331939;33;20152;-82
2021/07/20 05:34:52;;;;;;;18.80;9.20;;;;;;;;;;4331319;32;20163;-82
2021/07/20 05:37:23;;;;;;;18.50;8.98;;;;;;;;;;4344865;33;20170;-83
2021/07/20 05:39:49;;;;;;;17.33;8.68;;;;;;;;;;4331213;32;20212;-84
2021/07/20 05:42:18;;;;;;;16.33;8.30;;;;;;;;;;4331283;32;20155;-83
2021/07/20 05:45:10;;;;;;;16.48;8.25;;;;;;;;;;4329041;33;20234;-82
2021/07/20 05:47:39;;;;;;;16.60;9.20;;;;;;;;;;4329769;32;20152;-82
2021/07/20 05:50:06;;;;;;;18.15;9.63;;;;;;;;;;4317143;33;20511;-82
2021/07/20 05:52:33;;;;;;;17.00;9.80;;;;;;;;;;4315625;33;20172;-83
2021/07/20 05:54:59;;;;;;;20.42;8.73;;;;;;;;;;4316266;33;20186;-82
2021/07/20 05:57:25;;;;;;;15.55;7.97;;;;;;;;;;4326161;33;20156;-84
2021/07/20 05:59:55;;;;;;;19.33;8.70;;;;;;;;;;4340188;33;20509;-82
2021/07/20 06:02:22;;;;;;;15.80;8.55;;;;;;;;;;4345833;33;20222;-83
2021/07/20 06:04:49;;;;;;;14.63;8.35;;;;;;;;;;4346260;33;20185;-83
2021/07/20 06:07:25;;;;;;;;;;;;;;;;;;;;;
2021/07/20 06:09:50;;;;;;;16.37;8.95;;;;;;;;;;4359646;33;20178;-83
2021/07/20 06:12:16;;;;;;;16.17;7.32;;;;;;;;;;4345513;33;20162;-84
2021/07/20 06:14:45;;;;;;;15.43;7.07;;;;;;;;;;4345267;33;20221;-83
2021/07/20 06:17:10;;;;;;;16.00;7.78;;;;;;;;;;4345557;33;20166;-83
2021/07/20 06:19:36;;;;;;;30.42;8.90;;;;;;;;;;4345494;33;20470;-84
2021/07/20 06:22:05;;;;;;;18.62;9.13;;;;;;;;;;4345167;33;20185;-82
2021/07/20 06:24:32;;;;;;;13.07;7.35;;;;;;;;;;4344995;33;20171;-84
2021/07/20 06:27:29;;;;;;;13.52;7.62;;;;;;;;;;4345162;33;20674;-83
2021/07/20 06:29:55;;;;;;;15.60;7.53;;;;;;;;;;4345539;33;20163;-83
2021/07/20 06:32:22;;;;;;;17.48;8.02;;;;;;;;;;4345536;33;20159;-84
2021/07/20 06:34:49;;;;;;;14.00;7.75;;;;;;;;;;4345256;33;20162;-84
2021/07/20 06:37:14;;;;;;;13.20;7.70;;;;;;;;;;4359050;33;20143;-83
2021/07/20 06:39:41;;;;;;;13.15;7.47;;;;;;;;;;4345101;33;20222;-84
2021/07/20 06:42:06;;;;;;;14.13;7.50;;;;;;;;;;4344985;33;20175;-84
2021/07/20 06:44:32;;;;;;;13.80;7.10;;;;;;;;;;4345206;33;20257;-84
2021/07/20 06:46:59;;;;;;;13.27;7.43;;;;;;;;;;4358819;33;20595;-86
2021/07/20 06:49:25;;;;;;;14.05;7.53;;;;;;;;;;4345431;33;20171;-84
2021/07/20 06:51:51;;;;;;;16.33;8.10;;;;;;;;;;4345068;33;20443;-83
2021/07/20 06:54:24;;;;;;;15.68;8.25;;;;;;;;;;4332681;33;20229;-82
2021/07/20 06:57:00;;;;;;;14.20;7.70;;;;;;;;;;4345768;33;20208;-82
2021/07/20 06:59:26;;;;;;;15.05;7.55;;;;;;;;;;4344940;32;20163;-81
2021/07/20 07:01:51;;;;;;;15.23;8.27;;;;;;;;;;4345130;33;20171;-82
2021/07/20 07:04:26;;;;;;;13.85;7.25;;;;;;;;;;4358015;32;20203;-81
2021/07/20 07:06:55;;;;;;;13.10;7.18;;;;;;;;;;4358124;33;20535;-80
2021/07/20 07:09:24;;;;;;;13.48;7.95;;;;;;;;;;4333133;33;20163;-80
2021/07/20 07:11:49;;;;;;;12.80;7.30;;;;;;;;;;4341285;32;20164;-80
2021/07/20 07:14:19;;;;;;;12.30;7.53;;;;;;;;;;4394114;32;20201;-80
2021/07/20 07:16:45;;;;;;;12.50;7.07;;;;;;;;;;4339731;33;20491;-81
2021/07/20 07:19:14;;;;;;;10.40;6.97;;;;;;;;;;4330022;32;20163;-81
2021/07/20 07:21:45;;;;;;;10.30;6.95;;;;;;;;;;4352113;32;20151;-80
2021/07/20 07:27:11;;;;;;;13.43;7.53;;;;;;;;;;4332664;33;20191;-82
2021/07/20 07:29:38;;;;;;;11.20;7.18;;;;;;;;;;4330067;32;20171;-81
2021/07/20 07:32:31;;;;;;;12.07;6.32;;;;;;;;;;4329256;32;20190;-80
2021/07/20 07:34:57;;;;;;;11.63;7.62;;;;;;;;;;4339468;32;20230;-80
2021/07/20 07:37:33;;;;;;;14.45;7.18;;;;;;;;;;4343751;32;20623;-82
2021/07/20 07:40:07;;;;;;;15.38;6.82;;;;;;;;;;4330629;33;20512;-81
2021/07/20 07:42:36;;;;;;;12.80;6.72;;;;;;;;;;4330977;33;20196;-81
2021/07/20 07:45:03;;;;;;;11.18;6.22;;;;;;;;;;4343775;33;20186;-80
2021/07/20 07:47:32;;;;;;;14.52;7.43;;;;;;;;;;4334907;32;20242;-80
2021/07/20 07:49:57;;;;;;;14.25;7.40;;;;;;;;;;4348219;32;20198;-79
2021/07/20 07:52:23;;;;;;;12.98;6.43;;;;;;;;;;4335371;33;20227;-79
2021/07/20 07:54:51;;;;;;;11.48;7.20;;;;;;;;;;4341865;33;20232;-79
2021/07/20 07:57:18;;;;;;;12.10;6.57;;;;;;;;;;4342454;32;20228;-80
2021/07/20 07:59:44;;;;;;;11.40;6.18;;;;;;;;;;4341773;33;20572;-80
2021/07/20 08:02:14;;;;;;;12.02;7.03;;;;;;;;;;4341844;33;20584;-81
2021/07/20 08:04:49;;;;;;;12.63;7.75;;;;;;;;;;4342476;33;20593;-81
2021/07/20 08:07:16;;;;;;;13.25;6.97;;;;;;;;;;4343258;33;20150;-80
2021/07/20 08:09:42;;;;;;;12.85;6.95;;;;;;;;;;4375287;32;20570;-80
2021/07/20 08:12:10;;;;;;;13.75;7.70;;;;;;;;;;4406928;32;20166;-80
2021/07/20 08:14:35;;;;;;;12.18;6.85;;;;;;;;;;4393596;32;20193;-80
2021/07/20 08:17:01;;;;;;;13.32;7.75;;;;;;;;;;4408274;32;20185;-81
2021/07/20 08:19:27;;;;;;;11.40;6.90;;;;;;;;;;4409580;32;20210;-81
2021/07/20 08:21:58;;;;;;;14.93;6.70;;;;;;;;;;4409145;32;20247;-80
2021/07/20 08:24:24;;;;;;;13.50;6.50;;;;;;;;;;4405143;32;20195;-81
2021/07/20 08:26:57;;;;;;;13.62;7.25;;;;;;;;;;4395656;32;20247;-79
2021/07/20 08:29:25;;;;;;;13.75;7.00;;;;;;;;;;4396214;32;20215;-80
2021/07/20 08:32:07;;;;;;;13.30;7.05;;;;;;;;;;4396562;32;20235;-82
2021/07/20 08:34:35;;;;;;;12.88;6.50;;;;;;;;;;4396033;32;20214;-81
2021/07/20 08:37:01;;;;;;;10.90;6.15;;;;;;;;;;4368807;32;20518;-80
2021/07/20 08:39:27;;;;;;;10.70;6.40;;;;;;;;;;4409249;32;20189;-82
2021/07/20 08:42:07;;;;;;;13.82;7.35;;;;;;;;;;4408834;32;20201;-80
2021/07/20 08:44:55;;;;;;;11.30;6.90;;;;;;;;;;4409221;32;20676;-80
2021/07/20 08:47:31;;;;;;;11.65;6.30;;;;;;;;;;4408800;32;20185;-80
2021/07/20 08:50:00;;;;;;;11.30;6.12;;;;;;;;;;4408848;32;20189;-80
2021/07/20 08:52:42;;;;;;;9.50;5.75;;;;;;;;;;4377261;32;20198;-80
2021/07/20 08:55:13;;;;;;;10.73;6.43;;;;;;;;;;4344908;33;20193;-80
2021/07/20 08:57:49;;;;;;;11.90;6.28;;;;;;;;;;4346344;32;20618;-80
2021/07/20 09:00:19;;;;;;;9.90;6.20;;;;;;;;;;4346969;33;20205;-80
2021/07/20 09:03:09;;;;;;;12.95;7.20;;;;;;;;;;4346012;33;20206;-81
2021/07/20 09:05:41;;;;;;;10.05;6.00;;;;;;;;;;4346284;33;20158;-80
2021/07/20 09:08:36;;;;;;;12.10;6.43;;;;;;;;;;4345989;33;20541;-80
2021/07/20 09:11:11;;;;;;;10.45;6.05;;;;;;;;;;4352495;32;20616;-79
2021/07/20 09:13:38;;;;;;;10.68;6.80;;;;;;;;;;4423542;32;20201;-79
2021/07/20 09:16:10;;;;;;;11.85;7.12;;;;;;;;;;4345980;32;20205;-80
2021/07/20 09:18:58;;;;;;;10.88;6.37;;;;;;;;;;4415010;32;20159;-79
2021/07/20 09:21:26;;;;;;;13.07;7.00;;;;;;;;;;4357495;32;20234;-82
2021/07/20 09:23:56;;;;;;;12.55;7.18;;;;;;;;;;4345518;32;20234;-81
2021/07/20 09:26:46;;;;;;;11.38;7.03;;;;;;;;;;4360231;32;20149;-81
2021/07/20 09:29:17;;;;;;;10.80;6.85;;;;;;;;;;4360309;33;20545;-81
2021/07/20 09:31:55;;;;;;;10.50;6.75;;;;;;;;;;4346109;32;20159;-81
2021/07/20 09:34:29;;;;;;;11.98;6.75;;;;;;;;;;4346790;32;20640;-83
2021/07/20 09:37:14;;;;;;;14.10;6.87;;;;;;;;;;4349215;32;20174;-83
2021/07/20 09:40:02;;;;;;;10.90;7.07;;;;;;;;;;4361725;32;20311;-80
2021/07/20 09:42:46;;;;;;;12.32;6.70;;;;;;;;;;4360134;32;20600;-84
2021/07/20 09:45:13;;;;;;;10.23;6.50;;;;;;;;;;4346442;32;20185;-83
2021/07/20 09:47:45;;;;;;;11.32;6.45;;;;;;;;;;4374293;32;20142;-84
2021/07/20 09:50:15;;;;;;;10.40;6.55;;;;;;;;;;4369866;32;20183;-84
2021/07/20 09:52:55;;;;;;;9.13;6.22;;;;;;;;;;4397872;32;20158;-85
2021/07/20 09:55:36;;;;;;;9.93;6.00;;;;;;;;;;4359974;32;20194;-84
2021/07/20 09:58:21;;;;;;;10.13;6.28;;;;;;;;;;4344947;33;20174;-83
2021/07/20 10:00:50;;;;;;;9.15;5.85;;;;;;;;;;4352571;33;20160;-83
2021/07/20 10:03:47;;;;;;;;;;;;;;;;;;;;;
2021/07/20 10:06:18;;;;;;;8.43;6.15;;;;;;;;;;4359673;33;20182;-82
2021/07/20 10:09:02;;;;;;;10.52;6.32;;;;;;;;;;4358024;33;20675;-84
2021/07/20 10:11:30;;;;;;;11.30;6.37;;;;;;;;;;4359609;33;20128;-84
2021/07/20 10:14:02;;;;;;;10.05;6.05;;;;;;;;;;4358207;33;20167;-84
2021/07/20 10:16:39;;;;;;;9.77;6.37;;;;;;;;;;4349933;33;20194;-84
2021/07/20 10:19:04;;;;;;;10.25;6.70;;;;;;;;;;4352778;32;20249;-83
2021/07/20 10:21:30;;;;;;;12.37;6.70;;;;;;;;;;4360230;32;20159;-83
2021/07/20 10:24:05;;;;;;;11.02;6.70;;;;;;;;;;4360718;32;20281;-84
2021/07/20 10:27:01;;;;;;;10.90;6.60;;;;;;;;;;4360231;32;20189;-84
2021/07/20 10:29:45;;;;;;;10.38;6.57;;;;;;;;;;4344251;33;20291;-84
2021/07/20 10:32:20;;;;;;;10.50;6.37;;;;;;;;;;4348378;33;20186;-83
2021/07/20 10:34:52;;;;;;;12.30;6.90;;;;;;;;;;4340001;32;20201;-83
2021/07/20 10:37:19;;;;;;;11.52;7.68;;;;;;;;;;4358352;33;20476;-83
2021/07/20 10:40:17;;;;;;;;;;;;;;;;;;;;;
2021/07/20 10:43:12;;;;;;;10.95;6.60;;;;;;;;;;4359044;33;20212;-84
2021/07/20 10:45:38;;;;;;;10.68;6.50;;;;;;;;;;4344124;33;20160;-84
2021/07/20 10:48:21;;;;;;;12.10;7.18;;;;;;;;;;4357592;33;20599;-85
2021/07/20 10:51:17;;;;;;;;;;;;;;;;;;;;;
2021/07/20 10:54:12;;;;;;;8.60;6.60;;;;;;;;;;4371561;32;20270;-82
2021/07/20 11:00:07;;;;;;;10.75;6.30;;;;;;;;;;4351728;32;20278;-83
2021/07/20 11:02:34;;;;;;;9.85;6.78;;;;;;;;;;4354136;32;20178;-84
2021/07/20 11:05:04;;;;;;;9.90;6.45;;;;;;;;;;4346366;33;20193;-83
2021/07/20 11:07:30;;;;;;;10.98;7.32;;;;;;;;;;4345218;32;20171;-84
2021/07/20 11:09:58;;;;;;;10.20;6.78;;;;;;;;;;4344717;32;20159;-84
2021/07/20 11:18:23;;;;;;;12.68;7.43;;;;;;;;;;4358533;33;20231;-83
2021/07/20 11:20:52;;;;;;;9.70;6.50;;;;;;;;;;4346864;32;20182;-83
2021/07/20 11:23:21;;;;;;;9.70;6.47;;;;;;;;;;4354391;32;20155;-84
2021/07/20 11:25:48;;;;;;;12.35;6.97;;;;;;;;;;4355971;32;20241;-82
2021/07/20 11:28:14;;;;;;;11.27;6.57;;;;;;;;;;4348108;32;20225;-83
2021/07/20 11:30:57;;;;;;;10.82;6.15;;;;;;;;;;4345148;32;20170;-84
2021/07/20 11:33:41;;;;;;;9.43;6.45;;;;;;;;;;4344404;32;20201;-84
2021/07/20 11:36:07;;;;;;;8.23;5.65;;;;;;;;;;4341090;32;20171;-82
2021/07/20 11:38:35;;;;;;;8.68;5.78;;;;;;;;;;4346604;32;21521;-82
2021/07/20 11:41:01;;;;;;;8.05;5.25;;;;;;;;;;4341177;32;20492;-83
2021/07/20 11:43:47;;;;;;;8.60;6.10;;;;;;;;;;4350970;32;20174;-81
2021/07/20 11:46:20;;;;;;;9.00;6.32;;;;;;;;;;4343890;33;20194;-84
2021/07/20 11:48:50;;;;;;;8.68;5.90;;;;;;;;;;4356534;33;20163;-84
2021/07/20 11:51:19;;;;;;;8.13;5.57;;;;;;;;;;4373246;32;20477;-82
2021/07/20 11:54:13;;;;;;;6.62;5.50;;;;;;;;;;4359725;33;20545;-84
2021/07/20 11:56:54;;;;;;;7.35;5.40;;;;;;;;;;4359451;33;20166;-83
2021/07/20 11:59:19;;;;;;;8.50;6.03;;;;;;;;;;4359809;33;20156;-84
2021/07/20 12:02:22;;;;;;;10.52;6.62;;;;;;;;;;4359468;33;20210;-85
2021/07/20 12:05:06;;;;;;;6.93;5.45;;;;;;;;;;4359693;33;20514;-84
2021/07/20 12:07:54;;;;;;;8.13;5.53;;;;;;;;;;4359325;33;20224;-85
2021/07/20 12:10:58;;;;;;;6.60;5.35;;;;;;;;;;4355936;32;20269;-84
2021/07/20 12:13:23;;;;;;;8.55;6.18;;;;;;;;;;4363771;32;20723;-85
2021/07/20 12:15:58;;;;;;;7.97;5.82;;;;;;;;;;4369944;32;20166;-85
2021/07/20 12:18:23;;;;;;;8.05;5.80;;;;;;;;;;4392641;32;20251;-81
2021/07/20 12:20:50;;;;;;;8.07;5.83;;;;;;;;;;4347320;32;20175;-84
2021/07/20 12:23:17;;;;;;;7.95;6.15;;;;;;;;;;4346702;32;20264;-84
2021/07/20 12:25:42;;;;;;;9.40;5.95;;;;;;;;;;4347187;32;20186;-84
2021/07/20 12:28:12;;;;;;;7.50;6.30;;;;;;;;;;4346679;32;20171;-85
2021/07/20 12:30:37;;;;;;;9.38;6.43;;;;;;;;;;4346785;32;20159;-83
2021/07/20 12:33:15;;;;;;;7.45;5.90;;;;;;;;;;4346709;32;20673;-83
2021/07/20 12:35:43;;;;;;;7.32;5.72;;;;;;;;;;4346884;32;20198;-84
2021/07/20 12:38:08;;;;;;;7.53;5.90;;;;;;;;;;4346834;32;20190;-83
2021/07/20 12:40:37;;;;;;;8.55;5.80;;;;;;;;;;4347409;32;20163;-83
2021/07/20 12:43:15;;;;;;;8.68;6.12;;;;;;;;;;4348830;32;20159;-84
2021/07/20 12:45:43;;;;;;;8.15;6.68;;;;;;;;;;4349891;32;20170;-84
2021/07/20 12:48:24;;;;;;;9.85;6.43;;;;;;;;;;4357825;32;20192;-84
2021/07/20 12:50:50;;;;;;;7.78;6.03;;;;;;;;;;4360847;33;20201;-85
2021/07/20 12:53:17;;;;;;;7.22;6.32;;;;;;;;;;4363472;33;20229;-84
2021/07/20 12:55:48;;;;;;;10.25;6.90;;;;;;;;;;4362850;33;20194;-84
2021/07/20 12:58:16;;;;;;;7.65;6.32;;;;;;;;;;4360022;33;20221;-83
2021/07/20 13:00:43;;;;;;;10.23;7.20;;;;;;;;;;4362257;33;20167;-84
2021/07/20 13:03:11;;;;;;;7.97;6.62;;;;;;;;;;4359879;32;20221;-84
2021/07/20 13:05:40;;;;;;;7.62;6.43;;;;;;;;;;4360023;33;20208;-85
2021/07/20 13:08:09;;;;;;;9.57;7.35;;;;;;;;;;4360655;33;20186;-84
2021/07/20 13:10:34;;;;;;;11.20;9.25;;;;;;;;;;4360792;33;20175;-84
2021/07/20 13:13:09;;;;;;;12.70;7.53;;;;;;;;;;4360079;33;20190;-84
2021/07/20 13:15:37;;;;;;;8.85;7.00;;;;;;;;;;4360177;33;20264;-84
2021/07/20 13:18:08;;;;;;;9.75;7.65;;;;;;;;;;4360097;33;20163;-85
2021/07/20 13:20:34;;;;;;;8.60;6.90;;;;;;;;;;4360567;33;20194;-84
2021/07/20 13:23:01;;;;;;;7.40;6.53;;;;;;;;;;4361290;33;20143;-84
2021/07/20 13:25:49;;;;;;;9.48;7.00;;;;;;;;;;4358893;33;20162;-82
2021/07/20 13:28:19;;;;;;;10.05;7.65;;;;;;;;;;4358978;33;20159;-84
2021/07/20 13:30:45;;;;;;;8.55;6.87;;;;;;;;;;4352367;33;20216;-84
2021/07/20 13:33:10;;;;;;;11.15;7.40;;;;;;;;;;4348728;32;20171;-85
2021/07/20 13:35:35;;;;;;;8.55;7.03;;;;;;;;;;4358344;33;20162;-85
2021/07/20 13:38:02;;;;;;;9.20;7.25;;;;;;;;;;4399253;32;20236;-84
2021/07/20 13:40:29;;;;;;;9.40;7.30;;;;;;;;;;4423391;32;20157;-84
2021/07/20 13:42:56;;;;;;;10.23;7.60;;;;;;;;;;4423484;32;20221;-84
2021/07/20 13:45:22;;;;;;;8.88;6.97;;;;;;;;;;4423416;32;20194;-84
2021/07/20 13:48:04;;;;;;;9.60;7.97;;;;;;;;;;4379429;32;20171;-83
2021/07/20 13:50:35;;;;;;;10.60;7.60;;;;;;;;;;4354724;33;20167;-84
2021/07/20 13:53:02;;;;;;;9.93;7.50;;;;;;;;;;4345064;32;20225;-83
2021/07/20 13:55:28;;;;;;;8.57;7.12;;;;;;;;;;4351255;32;20167;-85
2021/07/20 13:57:54;;;;;;;10.20;7.05;;;;;;;;;;4345683;32;20202;-84
2021/07/20 14:00:23;;;;;;;11.77;7.62;;;;;;;;;;4344733;32;20187;-85
2021/07/20 14:03:00;;;;;;;8.93;6.87;;;;;;;;;;4438237;32;20232;-84
2021/07/20 14:05:29;;;;;;;9.23;7.65;;;;;;;;;;4423527;32;20180;-85
2021/07/20 14:07:55;;;;;;;10.63;7.03;;;;;;;;;;4420102;32;20241;-84
2021/07/20 14:10:20;;;;;;;8.45;6.82;;;;;;;;;;4351294;32;20160;-86
2021/07/20 14:12:47;;;;;;;9.25;7.57;;;;;;;;;;4344970;32;20171;-85
2021/07/20 14:15:15;;;;;;;10.45;8.18;;;;;;;;;;4345547;33;20197;-86
2021/07/20 14:17:48;;;;;;;11.70;7.80;;;;;;;;;;4346163;32;20182;-83
2021/07/20 14:20:17;;;;;;;11.57;8.05;;;;;;;;;;4345662;32;20228;-85
2021/07/20 14:22:42;;;;;;;9.85;7.60;;;;;;;;;;4340496;32;20238;-85
2021/07/20 14:25:08;;;;;;;10.45;8.32;;;;;;;;;;4345143;33;20191;-84
2021/07/20 14:27:33;;;;;;;10.85;8.43;;;;;;;;;;4345638;33;20245;-85
2021/07/20 14:29:59;;;;;;;11.30;7.65;;;;;;;;;;4346288;33;20164;-85
2021/07/20 14:32:26;;;;;;;10.00;8.10;;;;;;;;;;4333730;33;20219;-85
2021/07/20 14:34:53;;;;;;;10.00;7.93;;;;;;;;;;4346015;33;20235;-84
2021/07/20 14:37:35;;;;;;;11.88;8.10;;;;;;;;;;4346558;32;20477;-84
2021/07/20 14:40:03;;;;;;;10.90;8.15;;;;;;;;;;4344897;32;20159;-85
2021/07/20 14:42:47;;;;;;;12.10;8.43;;;;;;;;;;4369005;32;20173;-84
2021/07/20 14:45:16;;;;;;;9.77;8.20;;;;;;;;;;4357221;32;20151;-85
2021/07/20 14:47:42;;;;;;;10.93;7.80;;;;;;;;;;4350125;33;20175;-85
2021/07/20 14:50:08;;;;;;;12.43;9.55;;;;;;;;;;4345721;32;20236;-85
2021/07/20 14:52:38;;;;;;;13.02;9.27;;;;;;;;;;4345238;33;20203;-85
2021/07/20 14:55:11;;;;;;;9.30;8.18;;;;;;;;;;4345984;33;20190;-86
2021/07/20 14:57:44;;;;;;;10.52;9.02;;;;;;;;;;4359025;33;20234;-85
2021/07/20 15:00:09;;;;;;;9.10;7.60;;;;;;;;;;4345372;32;20178;-87
2021/07/20 15:02:57;;;;;;;9.80;8.32;;;;;;;;;;4345901;32;20232;-85
2021/07/20 15:05:26;;;;;;;10.63;8.23;;;;;;;;;;4347712;32;20189;-86
2021/07/20 15:08:11;;;;;;;10.85;8.95;;;;;;;;;;4357214;33;20156;-85
2021/07/20 15:10:38;;;;;;;11.50;8.80;;;;;;;;;;4345378;32;20627;-85
2021/07/20 15:13:30;;;;;;;10.93;8.57;;;;;;;;;;4345307;32;20213;-85
2021/07/20 15:15:58;;;;;;;13.68;9.65;;;;;;;;;;4343935;33;20211;-85
2021/07/20 15:18:24;;;;;;;10.50;9.00;;;;;;;;;;4345285;33;20195;-85
2021/07/20 15:20:52;;;;;;;12.23;8.93;;;;;;;;;;4359176;33;20131;-85
2021/07/20 15:23:20;;;;;;;12.90;9.60;;;;;;;;;;4347881;33;20208;-85